createdAt,value
2022-12-17T00:04:18.979Z,101231.97
2022-12-17T00:08:41.267Z,101225.38
2022-12-17T00:13:02.074Z,101235.88
2022-12-17T00:17:22.543Z,101238.47
2022-12-17T00:21:45.561Z,101233.84
2022-12-17T00:26:10.173Z,101236.63
2022-12-17T00:30:31.337Z,101245.41
2022-12-17T00:35:00.471Z,101239.81
2022-12-17T00:39:21.117Z,101245.41
2022-12-17T00:43:43.843Z,101247.91
2022-12-17T00:48:06.429Z,101248.66
2022-12-17T00:52:27.519Z,101254.84
2022-12-17T00:56:48.392Z,101256.56
2022-12-17T01:01:10.507Z,101260.97
2022-12-17T01:05:31.872Z,101252.06
2022-12-17T01:09:52.577Z,101255.22
2022-12-17T01:14:13.399Z,101248.41
2022-12-17T01:18:38.050Z,101257.19
2022-12-17T01:22:58.597Z,101256.78
2022-12-17T01:27:19.397Z,101267.31
2022-12-17T01:31:40.010Z,101276.22
2022-12-17T01:36:02.256Z,101275.97
2022-12-17T01:40:23.382Z,101279.03
2022-12-17T01:45:04.993Z,101292.19
2022-12-17T01:49:27.843Z,101299.13
2022-12-17T01:53:53.384Z,101310.09
2022-12-17T01:58:14.087Z,101304.72
2022-12-17T02:02:35.321Z,101301.78
2022-12-17T02:07:01.361Z,101302.78
2022-12-17T02:11:33.693Z,101299.34
2022-12-17T02:15:59.646Z,101304.47
2022-12-17T02:20:38.083Z,101312.28
2022-12-17T02:25:08.326Z,101311.97
2022-12-17T02:29:31.286Z,101305.94
2022-12-17T02:33:52.647Z,101306.56
2022-12-17T02:38:13.700Z,101312.91
2022-12-17T02:42:36.135Z,101311.78
2022-12-17T02:47:00.120Z,101313.50
2022-12-17T02:51:21.238Z,101309.47
2022-12-17T02:55:41.643Z,101319.31
2022-12-17T03:00:02.461Z,101318.84
2022-12-17T03:04:25.794Z,101315.19
2022-12-17T03:08:46.746Z,101338.97
2022-12-17T03:13:07.565Z,101339.56
2022-12-17T03:17:28.070Z,101335.69
2022-12-17T03:21:50.342Z,101337.06
2022-12-17T03:26:11.976Z,101349.59
2022-12-17T03:30:36.003Z,101348.53
2022-12-17T03:35:09.127Z,101349.13
2022-12-17T03:39:30.468Z,101362.31
2022-12-17T03:43:51.287Z,101361.13
2022-12-17T03:48:22.970Z,101364.66
2022-12-17T03:52:43.965Z,101359.16
2022-12-17T03:57:09.566Z,101361.75
2022-12-17T04:01:33.881Z,101369.69
2022-12-17T04:05:54.710Z,101360.66
2022-12-17T04:10:26.780Z,101353.84
2022-12-17T04:14:48.728Z,101351.97
2022-12-17T04:19:09.511Z,101361.16
2022-12-17T04:23:38.883Z,101367.03
2022-12-17T04:27:59.935Z,101372.16
2022-12-17T04:32:22.129Z,101371.03
2022-12-17T04:36:42.874Z,101379.56
2022-12-17T04:41:08.836Z,101379.09
2022-12-17T04:45:29.404Z,101383.84
2022-12-17T04:49:51.410Z,101388.94
2022-12-17T04:54:11.814Z,101382.31
2022-12-17T04:58:32.587Z,101386.84
2022-12-17T05:02:53.427Z,101394.94
2022-12-17T05:07:15.397Z,101399.56
2022-12-17T05:11:36.099Z,101407.09
2022-12-17T05:15:56.951Z,101402.09
2022-12-17T05:20:17.772Z,101407.94
2022-12-17T05:24:41.327Z,101407.53
2022-12-17T05:29:02.122Z,101404.63
2022-12-17T05:33:23.402Z,101403.44
2022-12-17T05:37:44.582Z,101405.38
2022-12-17T05:42:06.923Z,101412.00
2022-12-17T05:46:27.610Z,101410.66
2022-12-17T05:50:48.426Z,101411.75
2022-12-17T05:55:09.263Z,101408.56
2022-12-17T05:59:31.070Z,101421.25
2022-12-17T06:03:51.817Z,101412.84
2022-12-17T06:08:12.682Z,101432.75
2022-12-17T06:12:33.498Z,101433.47
2022-12-17T06:16:55.457Z,101433.72
2022-12-17T06:21:15.979Z,101425.66
2022-12-17T06:25:36.586Z,101432.22
2022-12-17T06:29:57.420Z,101437.34
2022-12-17T06:34:19.556Z,101436.47
2022-12-17T06:38:40.394Z,101437.34
2022-12-17T06:43:10.938Z,101440.25
2022-12-17T06:47:31.886Z,101439.28
2022-12-17T06:51:50.390Z,101442.94
2022-12-17T06:56:11.708Z,101439.72
2022-12-17T07:00:33.237Z,101438.63
2022-12-17T07:04:54.099Z,101446.16
2022-12-17T07:09:16.606Z,101446.59
2022-12-17T07:13:37.697Z,101445.09
2022-12-17T07:17:59.866Z,101455.31
2022-12-17T07:22:20.592Z,101461.41
2022-12-17T07:26:42.622Z,101467.00
2022-12-17T07:31:03.811Z,101485.03
2022-12-17T07:35:25.391Z,101480.06
2022-12-17T07:39:46.204Z,101482.34
2022-12-17T07:44:08.204Z,101486.97
2022-12-17T07:48:37.363Z,101496.41
2022-12-17T07:52:57.953Z,101504.56
2022-12-17T07:57:19.008Z,101507.25
2022-12-17T08:01:41.041Z,101512.94
2022-12-17T08:06:02.385Z,101521.00
2022-12-17T08:10:23.909Z,101514.44
2022-12-17T08:14:44.727Z,101524.84
2022-12-17T08:19:06.946Z,101523.56
2022-12-17T08:23:26.921Z,101528.22
2022-12-17T08:27:47.730Z,101544.91
2022-12-17T08:32:09.231Z,101555.44
2022-12-17T08:36:27.778Z,101532.47
2022-12-17T08:40:48.581Z,101557.47
2022-12-17T08:45:09.322Z,101565.53
2022-12-17T08:49:30.122Z,101576.47
2022-12-17T08:53:52.602Z,101571.59
2022-12-17T08:58:13.640Z,101581.69
2022-12-17T09:02:34.368Z,101566.16
2022-12-17T09:06:55.166Z,101569.78
2022-12-17T09:11:20.487Z,101580.31
2022-12-17T09:15:41.152Z,101584.16
2022-12-17T09:20:01.916Z,101583.09
2022-12-17T09:24:23.271Z,101592.84
2022-12-17T09:28:45.112Z,101598.44
2022-12-17T09:33:05.998Z,101599.72
2022-12-17T09:37:26.739Z,101593.91
2022-12-17T09:41:55.739Z,101595.41
2022-12-17T09:46:24.439Z,101599.91
2022-12-17T09:50:45.330Z,101603.22
2022-12-17T09:55:10.159Z,101609.88
2022-12-17T09:59:38.326Z,101607.06
2022-12-17T10:04:04.532Z,101623.81
2022-12-17T10:08:31.375Z,101636.09
2022-12-17T10:12:52.676Z,101632.19
2022-12-17T10:17:13.334Z,101634.38
2022-12-17T10:21:38.007Z,101655.97
2022-12-17T10:26:08.830Z,101649.75
2022-12-17T10:30:34.597Z,101643.13
2022-12-17T10:35:07.982Z,101646.38
2022-12-17T10:39:35.450Z,101646.56
2022-12-17T10:43:59.038Z,101654.03
2022-12-17T10:48:19.504Z,101660.31
2022-12-17T10:52:45.767Z,101650.41
2022-12-17T10:57:16.886Z,101654.97
2022-12-17T11:01:41.342Z,101654.63
2022-12-17T11:06:02.179Z,101661.53
2022-12-17T11:10:28.771Z,101668.34
2022-12-17T11:14:58.579Z,101670.78
2022-12-17T11:19:34.746Z,101656.38
2022-12-17T11:24:00.615Z,101661.16
2022-12-17T11:28:30.110Z,101660.00
2022-12-17T11:33:09.333Z,101661.31
2022-12-17T11:37:36.634Z,101658.88
2022-12-17T11:42:11.438Z,101659.78
2022-12-17T11:46:44.226Z,101656.00
2022-12-17T11:51:23.586Z,101647.41
2022-12-17T11:55:53.011Z,101651.41
2022-12-17T12:00:19.695Z,101651.56
2022-12-17T12:04:55.654Z,101648.72
2022-12-17T12:09:28.145Z,101655.31
2022-12-17T12:13:59.288Z,101649.81
2022-12-17T12:18:24.458Z,101645.06
2022-12-17T12:22:51.673Z,101647.75
2022-12-17T12:27:23.665Z,101645.94
2022-12-17T12:31:53.354Z,101644.53
2022-12-17T12:36:20.103Z,101654.34
2022-12-17T12:40:50.396Z,101641.88
2022-12-17T12:45:21.042Z,101638.94
2022-12-17T12:49:47.839Z,101635.47
2022-12-17T12:54:27.157Z,101641.72
2022-12-17T12:58:50.560Z,101633.69
2022-12-17T13:03:13.414Z,101627.34
2022-12-17T13:07:28.061Z,101636.81
2022-12-17T13:11:39.336Z,101639.38
2022-12-17T13:15:47.660Z,101633.22
2022-12-17T13:20:05.054Z,101624.84
2022-12-17T13:24:12.507Z,101624.38
2022-12-17T13:28:30.843Z,101626.16
2022-12-17T13:32:43.844Z,101612.81
2022-12-17T13:36:57.836Z,101600.50
2022-12-17T13:41:10.443Z,101610.88
2022-12-17T13:45:16.807Z,101607.81
2022-12-17T13:49:22.194Z,101610.88
2022-12-17T13:53:27.424Z,101606.56
2022-12-17T13:57:31.763Z,101620.41
2022-12-17T14:01:46.690Z,101617.56
2022-12-17T14:05:50.752Z,101620.34
2022-12-17T14:09:56.504Z,101616.13
2022-12-17T14:14:02.299Z,101615.25
2022-12-17T14:18:06.848Z,101617.66
2022-12-17T14:22:13.766Z,101624.72
2022-12-17T14:26:18.992Z,101638.47
2022-12-17T14:30:26.030Z,101627.22
2022-12-17T14:34:30.149Z,101632.19
2022-12-17T14:38:38.719Z,101631.59
2022-12-17T14:42:43.865Z,101641.44
2022-12-17T14:46:47.584Z,101643.09
2022-12-17T14:50:56.052Z,101642.31
2022-12-17T14:54:59.285Z,101648.34
2022-12-17T14:59:03.858Z,101637.34
2022-12-17T15:03:07.325Z,101645.00
2022-12-17T15:07:17.828Z,101656.63
2022-12-17T15:11:23.230Z,101652.63
2022-12-17T15:15:27.862Z,101646.81
2022-12-17T15:19:31.536Z,101640.88
2022-12-17T15:23:34.794Z,101646.28
2022-12-17T15:27:38.000Z,101649.41
2022-12-17T15:31:42.694Z,101654.09
2022-12-17T15:35:45.982Z,101645.56
2022-12-17T15:39:49.373Z,101648.84
2022-12-17T15:43:52.611Z,101652.84
2022-12-17T15:47:57.362Z,101648.81
2022-12-17T15:52:00.531Z,101654.91
2022-12-17T15:56:05.497Z,101661.63
2022-12-17T16:00:09.987Z,101654.47
2022-12-17T16:04:20.276Z,101662.34
2022-12-17T16:08:27.917Z,101660.72
2022-12-17T16:12:31.394Z,101655.91
2022-12-17T16:16:34.639Z,101666.72
2022-12-17T16:20:39.609Z,101672.53
2022-12-17T16:24:43.082Z,101664.41
2022-12-17T16:28:46.449Z,101669.41
2022-12-17T16:32:49.722Z,101671.78
2022-12-17T16:36:54.385Z,101681.47
2022-12-17T16:40:58.319Z,101685.00
2022-12-17T16:45:01.507Z,101673.81
2022-12-17T16:49:07.869Z,101676.63
2022-12-17T16:53:13.299Z,101681.50
2022-12-17T16:57:16.452Z,101684.38
2022-12-17T17:01:21.783Z,101686.78
2022-12-17T17:05:25.204Z,101685.06
2022-12-17T17:09:29.826Z,101680.34
2022-12-17T17:13:33.079Z,101686.34
2022-12-17T17:17:54.551Z,101676.41
2022-12-17T17:21:59.412Z,101693.75
2022-12-17T17:26:04.740Z,101697.00
2022-12-17T17:30:09.088Z,101690.25
2022-12-17T17:34:15.046Z,101695.06
2022-12-17T17:38:18.240Z,101692.91
2022-12-17T17:42:22.852Z,101689.06
2022-12-17T17:46:27.219Z,101703.03
2022-12-17T17:50:31.058Z,101705.88
2022-12-17T17:54:35.125Z,101699.38
2022-12-17T17:58:40.024Z,101705.41
2022-12-17T18:02:43.637Z,101697.38
2022-12-17T18:07:16.532Z,101696.34
2022-12-17T18:11:17.829Z,101710.16
2022-12-17T18:15:24.791Z,101711.09
2022-12-17T18:19:28.271Z,101710.44
2022-12-17T18:23:31.405Z,101702.00
2022-12-17T18:27:34.525Z,101698.66
2022-12-17T18:31:39.148Z,101693.31
2022-12-17T18:35:42.454Z,101694.31
2022-12-17T18:39:45.616Z,101698.66
2022-12-17T18:43:50.621Z,101695.13
2022-12-17T18:47:55.246Z,101702.09
2022-12-17T18:51:58.557Z,101695.28
2022-12-17T18:56:08.287Z,101717.16
2022-12-17T19:00:12.730Z,101725.91
2022-12-17T19:04:19.849Z,101708.81
2022-12-17T19:08:23.037Z,101708.44
2022-12-17T19:12:26.266Z,101716.25
2022-12-17T19:16:30.698Z,101714.47
2022-12-17T19:20:35.427Z,101707.56
2022-12-17T19:24:38.497Z,101710.69
2022-12-17T19:28:42.273Z,101710.16
2022-12-17T19:32:45.400Z,101715.81
2022-12-17T19:36:50.125Z,101712.00
2022-12-17T19:40:53.458Z,101709.84
2022-12-17T19:44:58.040Z,101732.78
2022-12-17T19:49:01.832Z,101734.31
2022-12-17T19:53:06.579Z,101730.81
2022-12-17T19:57:09.839Z,101744.56
2022-12-17T20:01:16.172Z,101740.53
2022-12-17T20:05:19.610Z,101759.81
2022-12-17T20:09:24.439Z,101760.94
2022-12-17T20:13:27.559Z,101759.75
2022-12-17T20:17:30.778Z,101762.41
2022-12-17T20:21:34.852Z,101760.34
2022-12-17T20:25:39.383Z,101749.25
2022-12-17T20:29:42.540Z,101747.53
2022-12-17T20:33:45.868Z,101761.63
2022-12-17T20:37:49.159Z,101761.81
2022-12-17T20:41:53.703Z,101762.91
2022-12-17T20:45:57.014Z,101768.47
2022-12-17T20:50:00.223Z,101757.53
2022-12-17T20:54:04.431Z,101759.34
2022-12-17T20:58:09.034Z,101759.53
2022-12-17T21:02:12.272Z,101758.84
2022-12-17T21:06:18.770Z,101758.25
2022-12-17T21:10:22.085Z,101756.53
2022-12-17T21:14:31.984Z,101757.56
2022-12-17T21:18:39.117Z,101754.41
2022-12-17T21:22:42.946Z,101756.13
2022-12-17T21:26:47.157Z,101755.63
2022-12-17T21:30:51.753Z,101763.53
2022-12-17T21:34:55.236Z,101756.47
2022-12-17T21:38:59.463Z,101760.09
2022-12-17T21:43:02.652Z,101748.31
2022-12-17T21:47:07.379Z,101756.47
2022-12-17T21:51:13.139Z,101763.88
2022-12-17T21:55:16.904Z,101776.59
2022-12-17T21:59:20.075Z,101789.81
2022-12-17T22:03:24.768Z,101777.19
2022-12-17T22:07:29.233Z,101779.41
2022-12-17T22:11:37.268Z,101784.47
2022-12-17T22:15:47.503Z,101783.16
2022-12-17T22:19:53.014Z,101785.03
2022-12-17T22:23:56.214Z,101776.25
2022-12-17T22:28:00.450Z,101786.03
2022-12-17T22:32:21.501Z,101796.06
2022-12-17T22:38:27.887Z,101792.72
2022-12-17T22:44:30.355Z,101798.56
2022-12-17T22:45:16.062Z,101815.78
2022-12-17T22:49:20.510Z,101809.09
2022-12-17T22:53:26.355Z,101805.13
2022-12-17T22:57:36.162Z,101807.69
2022-12-17T23:01:40.499Z,101802.25
2022-12-17T23:05:44.074Z,101788.22
2022-12-17T23:09:51.052Z,101793.72
2022-12-17T23:13:55.147Z,101794.06
2022-12-17T23:18:00.659Z,101792.66
2022-12-17T23:22:03.918Z,101792.66
2022-12-17T23:26:09.912Z,101791.09
2022-12-17T23:30:15.303Z,101786.63
2022-12-17T23:34:18.686Z,101788.16
2022-12-17T23:38:21.839Z,101775.75
2022-12-17T23:42:27.410Z,101770.13
2022-12-17T23:46:31.753Z,101762.72
2022-12-17T23:50:35.172Z,101755.84
2022-12-17T23:54:38.768Z,101773.09
2022-12-17T23:58:44.917Z,101778.69
